Terminal Aerodrome Forecast
Issued by NWS Burlington, VT

Home | Current Version | Previous Version | Text Only | Print | Product List | Glossary On
Versions: 1 2 3 4 5 6 7 8 9 10 11 12 13 14 15 16 17 18 19
059
FTUS41 KBTV 261737
TAFBTV
TAF
KBTV 261737Z 2618/2718 19009KT P6SM BKN080 OVC150
     FM270000 17008KT P6SM OVC060
     FM270400 17009G18KT 4SM -RA BR OVC035
     FM270700 17012G20KT 3SM -RA BR OVC025
     FM271400 18010KT 3SM -RA BR OVC015=

USA.gov is the U.S. government's official web portal to all federal, state and local government web resources and services.